sensor_id;sensor_type;location;lat;lon;timestamp;temperature;humidity
52024;DHT22;38038;45.922;13.604;2023-03-07T00:02:23;7.90;99.90
52024;DHT22;38038;45.922;13.604;2023-03-07T00:04:49;7.90;99.90
52024;DHT22;38038;45.922;13.604;2023-03-07T00:07:15;8.00;99.90
52024;DHT22;38038;45.922;13.604;2023-03-07T00:09:41;7.90;99.90
52024;DHT22;38038;45.922;13.604;2023-03-07T00:12:08;7.90;99.90
52024;DHT22;38038;45.922;13.604;2023-03-07T00:14:34;7.90;99.90
52024;DHT22;38038;45.922;13.604;2023-03-07T00:17:00;7.90;99.90
52024;DHT22;38038;45.922;13.604;2023-03-07T00:19:26;7.90;99.90
52024;DHT22;38038;45.922;13.604;2023-03-07T00:21:51;7.80;99.90
52024;DHT22;38038;45.922;13.604;2023-03-07T00:24:17;7.80;99.90
52024;DHT22;38038;45.922;13.604;2023-03-07T00:26:43;7.80;99.90
52024;DHT22;38038;45.922;13.604;2023-03-07T00:29:09;7.80;99.90
52024;DHT22;38038;45.922;13.604;2023-03-07T00:31:35;7.90;99.90
52024;DHT22;38038;45.922;13.604;2023-03-07T00:34:02;7.90;99.90
52024;DHT22;38038;45.922;13.604;2023-03-07T00:36:28;7.90;99.90
52024;DHT22;38038;45.922;13.604;2023-03-07T00:38:54;8.00;99.90
52024;DHT22;38038;45.922;13.604;2023-03-07T00:41:22;8.00;99.90
52024;DHT22;38038;45.922;13.604;2023-03-07T00:43:49;7.80;99.90
52024;DHT22;38038;45.922;13.604;2023-03-07T00:46:16;7.90;99.90
52024;DHT22;38038;45.922;13.604;2023-03-07T00:48:42;7.90;99.90
52024;DHT22;38038;45.922;13.604;2023-03-07T00:51:11;7.80;99.90
52024;DHT22;38038;45.922;13.604;2023-03-07T00:53:38;7.80;99.90
52024;DHT22;38038;45.922;13.604;2023-03-07T00:56:06;7.80;99.90
52024;DHT22;38038;45.922;13.604;2023-03-07T00:58:34;7.90;99.90
52024;DHT22;38038;45.922;13.604;2023-03-07T01:01:00;7.90;99.90
52024;DHT22;38038;45.922;13.604;2023-03-07T01:03:27;7.80;99.90
52024;DHT22;38038;45.922;13.604;2023-03-07T01:05:53;7.70;99.90
52024;DHT22;38038;45.922;13.604;2023-03-07T01:08:20;7.70;99.90
52024;DHT22;38038;45.922;13.604;2023-03-07T01:10:46;7.60;99.90
52024;DHT22;38038;45.922;13.604;2023-03-07T01:13:16;7.50;99.90
52024;DHT22;38038;45.922;13.604;2023-03-07T01:15:42;7.50;99.90
52024;DHT22;38038;45.922;13.604;2023-03-07T01:18:09;7.50;99.90
52024;DHT22;38038;45.922;13.604;2023-03-07T01:20:36;7.60;99.90
52024;DHT22;38038;45.922;13.604;2023-03-07T01:23:02;7.40;99.90
52024;DHT22;38038;45.922;13.604;2023-03-07T01:25:28;7.40;99.90
52024;DHT22;38038;45.922;13.604;2023-03-07T01:27:54;7.50;99.90
52024;DHT22;38038;45.922;13.604;2023-03-07T01:30:21;7.60;99.90
52024;DHT22;38038;45.922;13.604;2023-03-07T01:32:46;7.60;99.90
52024;DHT22;38038;45.922;13.604;2023-03-07T01:35:13;7.60;99.90
52024;DHT22;38038;45.922;13.604;2023-03-07T01:37:39;7.60;99.90
52024;DHT22;38038;45.922;13.604;2023-03-07T01:40:05;7.70;99.90
52024;DHT22;38038;45.922;13.604;2023-03-07T01:42:31;7.80;99.90
52024;DHT22;38038;45.922;13.604;2023-03-07T01:45:04;7.80;99.90
52024;DHT22;38038;45.922;13.604;2023-03-07T01:47:31;7.90;99.90
52024;DHT22;38038;45.922;13.604;2023-03-07T01:49:58;7.90;99.90
52024;DHT22;38038;45.922;13.604;2023-03-07T01:52:29;7.80;99.90
52024;DHT22;38038;45.922;13.604;2023-03-07T01:55:07;7.80;99.90
52024;DHT22;38038;45.922;13.604;2023-03-07T01:57:36;7.70;99.90
52024;DHT22;38038;45.922;13.604;2023-03-07T02:00:09;7.70;99.90
52024;DHT22;38038;45.922;13.604;2023-03-07T02:02:39;7.60;99.90
52024;DHT22;38038;45.922;13.604;2023-03-07T02:05:20;7.50;99.90
52024;DHT22;38038;45.922;13.604;2023-03-07T02:07:49;7.60;99.90
52024;DHT22;38038;45.922;13.604;2023-03-07T02:10:18;7.70;99.90
52024;DHT22;38038;45.922;13.604;2023-03-07T02:12:44;7.70;99.90
52024;DHT22;38038;45.922;13.604;2023-03-07T02:15:11;7.70;99.90
52024;DHT22;38038;45.922;13.604;2023-03-07T02:17:39;7.70;99.90
52024;DHT22;38038;45.922;13.604;2023-03-07T02:22:50;7.80;99.90
52024;DHT22;38038;45.922;13.604;2023-03-07T02:28:20;7.70;99.90
52024;DHT22;38038;45.922;13.604;2023-03-07T02:30:59;7.50;99.90
52024;DHT22;38038;45.922;13.604;2023-03-07T02:33:25;7.50;99.90
52024;DHT22;38038;45.922;13.604;2023-03-07T02:35:56;7.60;99.90
52024;DHT22;38038;45.922;13.604;2023-03-07T02:38:23;7.60;99.90
52024;DHT22;38038;45.922;13.604;2023-03-07T02:40:50;7.60;99.90
52024;DHT22;38038;45.922;13.604;2023-03-07T02:43:18;7.50;99.90
52024;DHT22;38038;45.922;13.604;2023-03-07T02:45:44;7.50;99.90
52024;DHT22;38038;45.922;13.604;2023-03-07T02:48:10;7.60;99.90
52024;DHT22;38038;45.922;13.604;2023-03-07T02:50:35;7.70;99.90
52024;DHT22;38038;45.922;13.604;2023-03-07T02:53:01;7.70;99.90
52024;DHT22;38038;45.922;13.604;2023-03-07T02:55:27;7.70;99.90
52024;DHT22;38038;45.922;13.604;2023-03-07T02:57:52;7.70;99.90
52024;DHT22;38038;45.922;13.604;2023-03-07T03:00:19;7.60;99.90
52024;DHT22;38038;45.922;13.604;2023-03-07T03:02:44;7.50;99.90
52024;DHT22;38038;45.922;13.604;2023-03-07T03:05:10;7.50;99.90
52024;DHT22;38038;45.922;13.604;2023-03-07T03:07:36;7.50;99.90
52024;DHT22;38038;45.922;13.604;2023-03-07T03:10:03;7.50;99.90
52024;DHT22;38038;45.922;13.604;2023-03-07T03:12:29;7.40;99.90
52024;DHT22;38038;45.922;13.604;2023-03-07T03:14:54;7.40;99.90
52024;DHT22;38038;45.922;13.604;2023-03-07T03:17:20;7.20;99.90
52024;DHT22;38038;45.922;13.604;2023-03-07T03:19:46;7.10;99.90
52024;DHT22;38038;45.922;13.604;2023-03-07T03:22:11;7.10;99.90
52024;DHT22;38038;45.922;13.604;2023-03-07T03:24:41;7.10;99.90
52024;DHT22;38038;45.922;13.604;2023-03-07T03:27:07;7.20;99.90
52024;DHT22;38038;45.922;13.604;2023-03-07T03:29:33;7.30;99.90
52024;DHT22;38038;45.922;13.604;2023-03-07T03:31:59;7.30;99.90
52024;DHT22;38038;45.922;13.604;2023-03-07T03:34:25;7.30;99.90
52024;DHT22;38038;45.922;13.604;2023-03-07T03:36:51;7.30;99.90
52024;DHT22;38038;45.922;13.604;2023-03-07T03:39:16;7.30;99.90
52024;DHT22;38038;45.922;13.604;2023-03-07T03:41:42;7.30;99.90
52024;DHT22;38038;45.922;13.604;2023-03-07T03:44:08;7.30;99.90
52024;DHT22;38038;45.922;13.604;2023-03-07T03:46:34;7.20;99.90
52024;DHT22;38038;45.922;13.604;2023-03-07T03:49:00;7.20;99.90
52024;DHT22;38038;45.922;13.604;2023-03-07T03:51:26;7.00;99.90
52024;DHT22;38038;45.922;13.604;2023-03-07T03:53:52;7.00;99.90
52024;DHT22;38038;45.922;13.604;2023-03-07T03:56:21;6.90;99.90
52024;DHT22;38038;45.922;13.604;2023-03-07T03:58:48;6.80;99.90
52024;DHT22;38038;45.922;13.604;2023-03-07T04:01:16;6.90;99.90
52024;DHT22;38038;45.922;13.604;2023-03-07T04:03:44;7.00;99.90
52024;DHT22;38038;45.922;13.604;2023-03-07T04:06:14;6.90;99.90
52024;DHT22;38038;45.922;13.604;2023-03-07T04:08:40;6.80;99.90
52024;DHT22;38038;45.922;13.604;2023-03-07T04:11:06;6.90;99.90
52024;DHT22;38038;45.922;13.604;2023-03-07T04:13:33;6.80;99.90
52024;DHT22;38038;45.922;13.604;2023-03-07T04:15:59;6.80;99.90
52024;DHT22;38038;45.922;13.604;2023-03-07T04:18:24;6.80;99.90
52024;DHT22;38038;45.922;13.604;2023-03-07T04:20:51;6.80;99.90
52024;DHT22;38038;45.922;13.604;2023-03-07T04:23:21;6.70;99.90
52024;DHT22;38038;45.922;13.604;2023-03-07T04:25:48;6.60;99.90
52024;DHT22;38038;45.922;13.604;2023-03-07T04:28:17;6.60;99.90
52024;DHT22;38038;45.922;13.604;2023-03-07T04:30:44;6.60;99.90
52024;DHT22;38038;45.922;13.604;2023-03-07T04:33:10;6.70;99.90
52024;DHT22;38038;45.922;13.604;2023-03-07T04:35:37;6.70;99.90
52024;DHT22;38038;45.922;13.604;2023-03-07T04:38:03;6.70;99.90
52024;DHT22;38038;45.922;13.604;2023-03-07T04:40:28;6.70;99.90
52024;DHT22;38038;45.922;13.604;2023-03-07T04:42:54;6.70;99.90
52024;DHT22;38038;45.922;13.604;2023-03-07T04:45:20;6.70;99.90
52024;DHT22;38038;45.922;13.604;2023-03-07T04:47:45;6.80;99.90
52024;DHT22;38038;45.922;13.604;2023-03-07T04:50:11;6.80;99.90
52024;DHT22;38038;45.922;13.604;2023-03-07T04:52:37;6.80;99.90
52024;DHT22;38038;45.922;13.604;2023-03-07T04:55:02;6.80;99.90
52024;DHT22;38038;45.922;13.604;2023-03-07T04:57:28;6.80;99.90
52024;DHT22;38038;45.922;13.604;2023-03-07T04:59:54;6.80;99.90
52024;DHT22;38038;45.922;13.604;2023-03-07T05:02:20;6.70;99.90
52024;DHT22;38038;45.922;13.604;2023-03-07T05:04:45;6.70;99.90
52024;DHT22;38038;45.922;13.604;2023-03-07T05:07:11;6.60;99.90
52024;DHT22;38038;45.922;13.604;2023-03-07T05:09:37;6.60;99.90
52024;DHT22;38038;45.922;13.604;2023-03-07T05:12:02;6.60;99.90
52024;DHT22;38038;45.922;13.604;2023-03-07T05:14:28;6.60;99.90
52024;DHT22;38038;45.922;13.604;2023-03-07T05:16:54;6.60;99.90
52024;DHT22;38038;45.922;13.604;2023-03-07T05:19:19;6.60;99.90
52024;DHT22;38038;45.922;13.604;2023-03-07T05:21:45;6.60;99.90
52024;DHT22;38038;45.922;13.604;2023-03-07T05:24:13;6.50;99.90
52024;DHT22;38038;45.922;13.604;2023-03-07T05:26:40;6.70;99.90
52024;DHT22;38038;45.922;13.604;2023-03-07T05:29:06;6.60;99.90
52024;DHT22;38038;45.922;13.604;2023-03-07T05:31:32;6.50;99.90
52024;DHT22;38038;45.922;13.604;2023-03-07T05:33:58;6.50;99.90
52024;DHT22;38038;45.922;13.604;2023-03-07T05:36:25;6.50;99.90
52024;DHT22;38038;45.922;13.604;2023-03-07T05:38:50;6.60;99.90
52024;DHT22;38038;45.922;13.604;2023-03-07T05:41:18;6.60;99.90
52024;DHT22;38038;45.922;13.604;2023-03-07T05:43:44;6.60;99.90
52024;DHT22;38038;45.922;13.604;2023-03-07T05:46:10;6.60;99.90
52024;DHT22;38038;45.922;13.604;2023-03-07T05:48:35;6.60;99.90
52024;DHT22;38038;45.922;13.604;2023-03-07T05:51:01;6.70;99.90
52024;DHT22;38038;45.922;13.604;2023-03-07T05:53:26;6.80;99.90
52024;DHT22;38038;45.922;13.604;2023-03-07T05:55:52;6.70;99.90
52024;DHT22;38038;45.922;13.604;2023-03-07T05:58:18;6.80;99.90
52024;DHT22;38038;45.922;13.604;2023-03-07T06:00:43;6.80;99.90
52024;DHT22;38038;45.922;13.604;2023-03-07T06:03:09;6.80;99.90
52024;DHT22;38038;45.922;13.604;2023-03-07T06:05:35;6.90;99.90
52024;DHT22;38038;45.922;13.604;2023-03-07T06:08:01;6.80;99.90
52024;DHT22;38038;45.922;13.604;2023-03-07T06:10:28;7.00;99.90
52024;DHT22;38038;45.922;13.604;2023-03-07T06:12:54;7.00;99.90
52024;DHT22;38038;45.922;13.604;2023-03-07T06:15:20;7.00;99.90
52024;DHT22;38038;45.922;13.604;2023-03-07T06:17:46;7.00;99.90
52024;DHT22;38038;45.922;13.604;2023-03-07T06:20:12;7.00;99.90
52024;DHT22;38038;45.922;13.604;2023-03-07T06:22:38;7.00;99.90
52024;DHT22;38038;45.922;13.604;2023-03-07T06:25:05;6.90;99.90
52024;DHT22;38038;45.922;13.604;2023-03-07T06:27:35;7.00;99.90
52024;DHT22;38038;45.922;13.604;2023-03-07T06:30:01;7.00;99.90
52024;DHT22;38038;45.922;13.604;2023-03-07T06:32:27;7.00;99.90
52024;DHT22;38038;45.922;13.604;2023-03-07T06:34:54;7.00;99.90
52024;DHT22;38038;45.922;13.604;2023-03-07T06:37:20;7.00;99.90
52024;DHT22;38038;45.922;13.604;2023-03-07T06:39:45;7.00;99.90
52024;DHT22;38038;45.922;13.604;2023-03-07T06:42:11;7.10;99.90
52024;DHT22;38038;45.922;13.604;2023-03-07T06:44:37;7.20;99.90
52024;DHT22;38038;45.922;13.604;2023-03-07T06:47:03;7.20;99.90
52024;DHT22;38038;45.922;13.604;2023-03-07T06:49:29;7.10;99.90
52024;DHT22;38038;45.922;13.604;2023-03-07T06:51:55;7.00;99.90
52024;DHT22;38038;45.922;13.604;2023-03-07T06:54:20;7.00;99.90
52024;DHT22;38038;45.922;13.604;2023-03-07T06:56:46;7.10;99.90
52024;DHT22;38038;45.922;13.604;2023-03-07T06:59:12;7.20;99.90
52024;DHT22;38038;45.922;13.604;2023-03-07T07:01:37;7.30;99.90
52024;DHT22;38038;45.922;13.604;2023-03-07T07:04:03;7.40;99.90
52024;DHT22;38038;45.922;13.604;2023-03-07T07:06:29;7.50;99.90
52024;DHT22;38038;45.922;13.604;2023-03-07T07:08:56;7.60;99.90
52024;DHT22;38038;45.922;13.604;2023-03-07T07:11:22;7.60;99.90
52024;DHT22;38038;45.922;13.604;2023-03-07T07:13:48;7.70;99.90
52024;DHT22;38038;45.922;13.604;2023-03-07T07:16:15;7.90;99.90
52024;DHT22;38038;45.922;13.604;2023-03-07T07:18:43;7.80;99.90
52024;DHT22;38038;45.922;13.604;2023-03-07T07:21:09;7.80;99.90
52024;DHT22;38038;45.922;13.604;2023-03-07T07:23:35;7.90;99.90
52024;DHT22;38038;45.922;13.604;2023-03-07T07:26:01;8.00;99.90
52024;DHT22;38038;45.922;13.604;2023-03-07T07:28:27;8.20;99.90
52024;DHT22;38038;45.922;13.604;2023-03-07T07:30:53;8.30;99.90
52024;DHT22;38038;45.922;13.604;2023-03-07T07:33:19;8.40;99.90
52024;DHT22;38038;45.922;13.604;2023-03-07T07:35:45;8.50;99.90
52024;DHT22;38038;45.922;13.604;2023-03-07T07:38:12;8.70;99.90
52024;DHT22;38038;45.922;13.604;2023-03-07T07:40:38;8.80;99.90
52024;DHT22;38038;45.922;13.604;2023-03-07T07:43:04;8.90;99.90
52024;DHT22;38038;45.922;13.604;2023-03-07T07:45:30;9.00;99.90
52024;DHT22;38038;45.922;13.604;2023-03-07T07:47:55;9.20;99.90
52024;DHT22;38038;45.922;13.604;2023-03-07T07:50:23;9.30;99.90
52024;DHT22;38038;45.922;13.604;2023-03-07T07:52:49;9.30;99.90
52024;DHT22;38038;45.922;13.604;2023-03-07T07:55:16;9.50;99.90
52024;DHT22;38038;45.922;13.604;2023-03-07T07:57:42;9.50;99.90
52024;DHT22;38038;45.922;13.604;2023-03-07T08:00:11;9.70;99.90
52024;DHT22;38038;45.922;13.604;2023-03-07T08:02:38;9.90;99.90
52024;DHT22;38038;45.922;13.604;2023-03-07T08:05:07;10.00;99.90
52024;DHT22;38038;45.922;13.604;2023-03-07T08:07:34;10.20;99.90
52024;DHT22;38038;45.922;13.604;2023-03-07T08:10:00;10.40;99.90
52024;DHT22;38038;45.922;13.604;2023-03-07T08:12:25;10.40;99.90
52024;DHT22;38038;45.922;13.604;2023-03-07T08:14:51;10.40;99.90
52024;DHT22;38038;45.922;13.604;2023-03-07T08:17:17;10.60;99.90
52024;DHT22;38038;45.922;13.604;2023-03-07T08:19:42;10.60;99.90
52024;DHT22;38038;45.922;13.604;2023-03-07T08:22:08;10.50;99.90
52024;DHT22;38038;45.922;13.604;2023-03-07T08:24:34;10.50;99.90
52024;DHT22;38038;45.922;13.604;2023-03-07T08:27:00;10.70;99.90
52024;DHT22;38038;45.922;13.604;2023-03-07T08:29:26;10.70;99.90
52024;DHT22;38038;45.922;13.604;2023-03-07T08:31:52;10.70;99.90
52024;DHT22;38038;45.922;13.604;2023-03-07T08:34:19;10.70;99.90
52024;DHT22;38038;45.922;13.604;2023-03-07T08:36:45;10.80;99.90
52024;DHT22;38038;45.922;13.604;2023-03-07T08:39:11;11.00;99.90
52024;DHT22;38038;45.922;13.604;2023-03-07T08:41:37;11.10;99.90
52024;DHT22;38038;45.922;13.604;2023-03-07T08:44:03;10.90;99.90
52024;DHT22;38038;45.922;13.604;2023-03-07T08:46:29;11.00;99.90
52024;DHT22;38038;45.922;13.604;2023-03-07T08:48:55;10.90;99.90
52024;DHT22;38038;45.922;13.604;2023-03-07T08:51:21;11.10;99.90
52024;DHT22;38038;45.922;13.604;2023-03-07T08:53:46;11.00;99.90
52024;DHT22;38038;45.922;13.604;2023-03-07T08:56:17;11.20;99.90
52024;DHT22;38038;45.922;13.604;2023-03-07T08:58:43;11.30;99.90
52024;DHT22;38038;45.922;13.604;2023-03-07T09:01:09;11.20;99.90
52024;DHT22;38038;45.922;13.604;2023-03-07T09:03:37;11.30;99.90
52024;DHT22;38038;45.922;13.604;2023-03-07T09:06:04;11.50;99.90
52024;DHT22;38038;45.922;13.604;2023-03-07T09:08:30;11.50;99.90
52024;DHT22;38038;45.922;13.604;2023-03-07T09:10:59;11.60;99.90
52024;DHT22;38038;45.922;13.604;2023-03-07T09:13:25;11.50;99.90
52024;DHT22;38038;45.922;13.604;2023-03-07T09:15:51;11.50;99.90
52024;DHT22;38038;45.922;13.604;2023-03-07T09:18:17;11.50;99.90
52024;DHT22;38038;45.922;13.604;2023-03-07T09:20:43;11.50;99.90
52024;DHT22;38038;45.922;13.604;2023-03-07T09:23:08;11.40;99.90
52024;DHT22;38038;45.922;13.604;2023-03-07T09:25:35;11.70;99.90
52024;DHT22;38038;45.922;13.604;2023-03-07T09:28:01;11.90;99.90
52024;DHT22;38038;45.922;13.604;2023-03-07T09:30:28;11.50;99.90
52024;DHT22;38038;45.922;13.604;2023-03-07T09:32:54;11.50;99.90
52024;DHT22;38038;45.922;13.604;2023-03-07T09:35:20;11.50;99.90
52024;DHT22;38038;45.922;13.604;2023-03-07T09:37:46;11.40;99.90
52024;DHT22;38038;45.922;13.604;2023-03-07T09:40:21;11.30;99.90
52024;DHT22;38038;45.922;13.604;2023-03-07T09:43:18;11.20;99.90
52024;DHT22;38038;45.922;13.604;2023-03-07T09:46:05;11.00;99.90
52024;DHT22;38038;45.922;13.604;2023-03-07T09:48:48;10.80;99.90
52024;DHT22;38038;45.922;13.604;2023-03-07T09:51:25;10.60;99.90
52024;DHT22;38038;45.922;13.604;2023-03-07T09:54:04;10.70;99.90
52024;DHT22;38038;45.922;13.604;2023-03-07T09:56:53;10.90;99.90
52024;DHT22;38038;45.922;13.604;2023-03-07T10:07:19;11.00;99.90
52024;DHT22;38038;45.922;13.604;2023-03-07T10:09:49;10.90;99.90
52024;DHT22;38038;45.922;13.604;2023-03-07T10:14:52;10.90;99.90
52024;DHT22;38038;45.922;13.604;2023-03-07T10:17:28;10.60;99.90
52024;DHT22;38038;45.922;13.604;2023-03-07T10:20:10;10.40;99.90
52024;DHT22;38038;45.922;13.604;2023-03-07T10:25:54;10.00;99.90
52024;DHT22;38038;45.922;13.604;2023-03-07T10:28:27;9.90;99.90
52024;DHT22;38038;45.922;13.604;2023-03-07T10:30:58;9.80;99.90
52024;DHT22;38038;45.922;13.604;2023-03-07T10:33:27;9.90;99.90
52024;DHT22;38038;45.922;13.604;2023-03-07T10:36:01;9.90;99.90
52024;DHT22;38038;45.922;13.604;2023-03-07T10:41:20;10.00;99.90
52024;DHT22;38038;45.922;13.604;2023-03-07T10:43:47;10.00;99.90
52024;DHT22;38038;45.922;13.604;2023-03-07T10:48:42;10.00;99.90
52024;DHT22;38038;45.922;13.604;2023-03-07T10:53:56;10.00;99.90
52024;DHT22;38038;45.922;13.604;2023-03-07T10:56:22;9.90;99.90
52024;DHT22;38038;45.922;13.604;2023-03-07T10:59:08;10.00;99.90
52024;DHT22;38038;45.922;13.604;2023-03-07T11:01:36;10.10;99.90
52024;DHT22;38038;45.922;13.604;2023-03-07T11:04:06;10.40;99.90
52024;DHT22;38038;45.922;13.604;2023-03-07T11:06:50;10.30;99.90
52024;DHT22;38038;45.922;13.604;2023-03-07T11:09:26;10.50;99.90
52024;DHT22;38038;45.922;13.604;2023-03-07T11:11:59;10.70;99.90
52024;DHT22;38038;45.922;13.604;2023-03-07T11:14:28;10.90;99.90
52024;DHT22;38038;45.922;13.604;2023-03-07T11:17:02;11.00;99.90
52024;DHT22;38038;45.922;13.604;2023-03-07T11:19:41;11.20;99.90
52024;DHT22;38038;45.922;13.604;2023-03-07T11:22:27;11.30;99.90
52024;DHT22;38038;45.922;13.604;2023-03-07T11:24:55;11.70;99.90
52024;DHT22;38038;45.922;13.604;2023-03-07T11:30:24;11.70;99.90
52024;DHT22;38038;45.922;13.604;2023-03-07T11:54:26;11.70;99.90
52024;DHT22;38038;45.922;13.604;2023-03-07T12:00:10;11.80;99.90
52024;DHT22;38038;45.922;13.604;2023-03-07T12:24:43;11.70;99.90
52024;DHT22;38038;45.922;13.604;2023-03-07T12:27:18;11.60;99.90
52024;DHT22;38038;45.922;13.604;2023-03-07T12:29:53;11.50;99.90
52024;DHT22;38038;45.922;13.604;2023-03-07T12:32:24;11.50;99.90
52024;DHT22;38038;45.922;13.604;2023-03-07T12:37:37;11.60;99.90
52024;DHT22;38038;45.922;13.604;2023-03-07T12:45:22;11.50;99.90
52024;DHT22;38038;45.922;13.604;2023-03-07T12:50:47;11.50;99.90
52024;DHT22;38038;45.922;13.604;2023-03-07T12:53:41;11.60;99.90
52024;DHT22;38038;45.922;13.604;2023-03-07T12:59:04;11.80;99.90
52024;DHT22;38038;45.922;13.604;2023-03-07T13:01:38;11.60;99.90
52024;DHT22;38038;45.922;13.604;2023-03-07T13:06:49;11.80;99.90
52024;DHT22;38038;45.922;13.604;2023-03-07T13:09:22;11.70;99.90
52024;DHT22;38038;45.922;13.604;2023-03-07T13:14:46;11.50;99.90
52024;DHT22;38038;45.922;13.604;2023-03-07T13:27:59;11.90;99.90
52024;DHT22;38038;45.922;13.604;2023-03-07T13:30:26;11.90;99.90
52024;DHT22;38038;45.922;13.604;2023-03-07T13:32:53;12.10;99.90
52024;DHT22;38038;45.922;13.604;2023-03-07T13:43:03;12.10;99.90
52024;DHT22;38038;45.922;13.604;2023-03-07T13:48:12;12.30;99.90
52024;DHT22;38038;45.922;13.604;2023-03-07T13:58:39;11.60;99.90
52024;DHT22;38038;45.922;13.604;2023-03-07T14:01:22;11.60;99.90
52024;DHT22;38038;45.922;13.604;2023-03-07T14:03:56;11.50;99.90
52024;DHT22;38038;45.922;13.604;2023-03-07T14:06:33;11.70;99.90
52024;DHT22;38038;45.922;13.604;2023-03-07T14:09:03;11.70;99.90
52024;DHT22;38038;45.922;13.604;2023-03-07T14:11:46;11.70;99.90
52024;DHT22;38038;45.922;13.604;2023-03-07T14:17:11;12.00;99.90
52024;DHT22;38038;45.922;13.604;2023-03-07T14:25:07;12.30;99.90
52024;DHT22;38038;45.922;13.604;2023-03-07T14:27:58;12.30;99.90
52024;DHT22;38038;45.922;13.604;2023-03-07T14:30:26;12.20;99.90
52024;DHT22;38038;45.922;13.604;2023-03-07T14:32:52;12.10;99.90
52024;DHT22;38038;45.922;13.604;2023-03-07T14:38:08;11.70;99.90
52024;DHT22;38038;45.922;13.604;2023-03-07T14:44:21;11.50;99.90
52024;DHT22;38038;45.922;13.604;2023-03-07T14:50:15;11.80;99.90
52024;DHT22;38038;45.922;13.604;2023-03-07T14:52:42;11.40;99.90
52024;DHT22;38038;45.922;13.604;2023-03-07T14:55:22;11.40;99.90
52024;DHT22;38038;45.922;13.604;2023-03-07T14:57:52;11.30;99.90
52024;DHT22;38038;45.922;13.604;2023-03-07T15:03:09;11.30;99.90
52024;DHT22;38038;45.922;13.604;2023-03-07T15:05:45;11.20;99.90
52024;DHT22;38038;45.922;13.604;2023-03-07T15:08:37;11.20;99.90
52024;DHT22;38038;45.922;13.604;2023-03-07T15:14:33;11.20;99.90
52024;DHT22;38038;45.922;13.604;2023-03-07T15:16:52;11.00;99.90
52024;DHT22;38038;45.922;13.604;2023-03-07T15:19:34;11.00;99.90
52024;DHT22;38038;45.922;13.604;2023-03-07T15:22:03;11.10;99.90
52024;DHT22;38038;45.922;13.604;2023-03-07T15:24:34;11.00;99.90
52024;DHT22;38038;45.922;13.604;2023-03-07T15:27:02;11.00;99.90
52024;DHT22;38038;45.922;13.604;2023-03-07T15:29:30;11.10;99.90
52024;DHT22;38038;45.922;13.604;2023-03-07T15:31:58;11.10;99.90
52024;DHT22;38038;45.922;13.604;2023-03-07T15:34:30;11.10;99.90
52024;DHT22;38038;45.922;13.604;2023-03-07T15:37:26;11.10;99.90
52024;DHT22;38038;45.922;13.604;2023-03-07T15:42:46;11.10;99.90
52024;DHT22;38038;45.922;13.604;2023-03-07T15:45:34;11.10;99.90
52024;DHT22;38038;45.922;13.604;2023-03-07T15:48:08;11.10;99.90
52024;DHT22;38038;45.922;13.604;2023-03-07T15:50:35;11.20;99.90
52024;DHT22;38038;45.922;13.604;2023-03-07T15:53:12;11.10;99.90
52024;DHT22;38038;45.922;13.604;2023-03-07T15:55:43;11.10;99.90
52024;DHT22;38038;45.922;13.604;2023-03-07T15:58:12;11.00;99.90
52024;DHT22;38038;45.922;13.604;2023-03-07T16:00:39;11.00;99.90
52024;DHT22;38038;45.922;13.604;2023-03-07T16:05:49;11.00;99.90
52024;DHT22;38038;45.922;13.604;2023-03-07T16:08:17;11.00;99.90
52024;DHT22;38038;45.922;13.604;2023-03-07T16:11:03;11.00;99.90
52024;DHT22;38038;45.922;13.604;2023-03-07T16:13:31;11.10;99.90
52024;DHT22;38038;45.922;13.604;2023-03-07T16:16:03;11.00;99.90
52024;DHT22;38038;45.922;13.604;2023-03-07T16:18:30;10.90;99.90
52024;DHT22;38038;45.922;13.604;2023-03-07T16:20:56;10.90;99.90
52024;DHT22;38038;45.922;13.604;2023-03-07T16:23:22;10.80;99.90
52024;DHT22;38038;45.922;13.604;2023-03-07T16:25:48;10.70;99.90
52024;DHT22;38038;45.922;13.604;2023-03-07T16:28:14;10.80;99.90
52024;DHT22;38038;45.922;13.604;2023-03-07T16:30:42;10.90;99.90
52024;DHT22;38038;45.922;13.604;2023-03-07T16:33:11;10.90;99.90
52024;DHT22;38038;45.922;13.604;2023-03-07T16:35:38;10.90;99.90
52024;DHT22;38038;45.922;13.604;2023-03-07T16:38:04;10.90;99.90
52024;DHT22;38038;45.922;13.604;2023-03-07T16:40:30;10.80;99.90
52024;DHT22;38038;45.922;13.604;2023-03-07T16:42:57;10.90;99.90
52024;DHT22;38038;45.922;13.604;2023-03-07T16:47:51;10.70;99.90
52024;DHT22;38038;45.922;13.604;2023-03-07T16:50:19;10.70;99.90
52024;DHT22;38038;45.922;13.604;2023-03-07T16:52:45;10.60;99.90
52024;DHT22;38038;45.922;13.604;2023-03-07T16:55:12;10.50;99.90
52024;DHT22;38038;45.922;13.604;2023-03-07T16:57:40;10.60;99.90
52024;DHT22;38038;45.922;13.604;2023-03-07T17:00:10;10.60;99.90
52024;DHT22;38038;45.922;13.604;2023-03-07T17:02:37;10.50;99.90
52024;DHT22;38038;45.922;13.604;2023-03-07T17:05:02;10.50;99.90
52024;DHT22;38038;45.922;13.604;2023-03-07T17:07:28;10.40;99.90
52024;DHT22;38038;45.922;13.604;2023-03-07T17:09:54;10.50;99.90
52024;DHT22;38038;45.922;13.604;2023-03-07T17:12:23;10.50;99.90
52024;DHT22;38038;45.922;13.604;2023-03-07T17:14:49;10.50;99.90
52024;DHT22;38038;45.922;13.604;2023-03-07T17:17:21;10.40;99.90
52024;DHT22;38038;45.922;13.604;2023-03-07T17:19:48;10.40;99.90
52024;DHT22;38038;45.922;13.604;2023-03-07T17:22:15;10.40;99.90
52024;DHT22;38038;45.922;13.604;2023-03-07T17:24:40;10.40;99.90
52024;DHT22;38038;45.922;13.604;2023-03-07T17:27:06;10.50;99.90
52024;DHT22;38038;45.922;13.604;2023-03-07T17:29:41;10.60;99.90
52024;DHT22;38038;45.922;13.604;2023-03-07T17:32:08;10.50;99.90
52024;DHT22;38038;45.922;13.604;2023-03-07T17:34:36;10.50;99.90
52024;DHT22;38038;45.922;13.604;2023-03-07T17:37:02;10.40;99.90
52024;DHT22;38038;45.922;13.604;2023-03-07T17:39:29;10.40;99.90
52024;DHT22;38038;45.922;13.604;2023-03-07T17:41:55;10.50;99.90
52024;DHT22;38038;45.922;13.604;2023-03-07T17:44:21;10.40;99.90
52024;DHT22;38038;45.922;13.604;2023-03-07T17:46:47;10.40;99.90
52024;DHT22;38038;45.922;13.604;2023-03-07T17:49:13;10.30;99.90
52024;DHT22;38038;45.922;13.604;2023-03-07T17:51:38;10.30;99.90
52024;DHT22;38038;45.922;13.604;2023-03-07T17:54:07;10.40;99.90
52024;DHT22;38038;45.922;13.604;2023-03-07T17:56:34;10.40;99.90
52024;DHT22;38038;45.922;13.604;2023-03-07T17:59:00;10.50;99.90
52024;DHT22;38038;45.922;13.604;2023-03-07T18:01:30;10.50;99.90
52024;DHT22;38038;45.922;13.604;2023-03-07T18:03:56;10.50;99.90
52024;DHT22;38038;45.922;13.604;2023-03-07T18:06:22;10.60;99.90
52024;DHT22;38038;45.922;13.604;2023-03-07T18:08:48;10.50;99.90
52024;DHT22;38038;45.922;13.604;2023-03-07T18:11:14;10.50;99.90